Time;durP1;ratioP1;P1;durP2;ratioP2;P2;SDS_P1;SDS_P2;PMS_P1;PMS_P2;Temp;Humidity;BMP_temperature;BMP_pressure;BME280_temperature;BME280_humidity;BME280_pressure;Samples;Min_cycle;Max_cycle;Signal;HPM_P1;HPM_P2
2023/08/12 00:01:33;;;;;;;57.85;29.95;;;20.90;99.90;;;;;;5031533;28;20507;-63
2023/08/12 00:03:59;;;;;;;54.28;30.95;;;20.90;99.90;;;;;;5046076;28;20039;-63
2023/08/12 00:06:24;;;;;;;62.08;32.20;;;20.90;99.90;;;;;;5026475;28;20378;-61
2023/08/12 00:08:50;;;;;;;57.30;34.92;;;20.90;99.90;;;;;;5030383;28;20033;-63
2023/08/12 00:11:15;;;;;;;66.60;38.72;;;20.90;99.90;;;;;;5030369;28;20037;-61
2023/08/12 00:13:41;;;;;;;64.80;36.67;;;20.90;99.90;;;;;;5038122;28;20029;-62
2023/08/12 00:16:06;;;;;;;52.97;31.42;;;20.90;99.90;;;;;;5032137;28;20034;-60
2023/08/12 00:18:36;;;;;;;67.47;32.10;;;20.90;99.90;;;;;;5035667;28;20110;-62
2023/08/12 00:21:08;;;;;;;73.07;35.38;;;20.90;99.90;;;;;;5030954;28;20032;-61
2023/08/12 00:23:39;;;;;;;52.63;28.25;;;20.90;99.90;;;;;;5033372;28;20034;-62
2023/08/12 00:26:05;;;;;;;68.88;36.58;;;20.90;99.90;;;;;;5029690;28;20163;-61
2023/08/12 00:28:31;;;;;;;52.45;32.00;;;20.90;99.90;;;;;;5040947;28;20040;-63
2023/08/12 00:30:57;;;;;;;66.65;37.50;;;20.90;99.90;;;;;;5030815;28;20490;-63
2023/08/12 00:33:22;;;;;;;55.83;30.63;;;20.90;99.90;;;;;;5030724;28;20053;-61
2023/08/12 00:35:48;;;;;;;75.68;38.72;;;20.90;99.90;;;;;;5030580;28;20386;-62
2023/08/12 00:38:13;;;;;;;52.47;31.55;;;20.90;99.90;;;;;;5030469;28;20109;-61
2023/08/12 00:40:39;;;;;;;51.20;28.08;;;20.90;99.90;;;;;;5026105;28;20115;-62
2023/08/12 00:43:04;;;;;;;64.82;34.97;;;20.90;99.90;;;;;;5032766;28;20808;-63
2023/08/12 00:45:30;;;;;;;70.78;38.30;;;20.90;99.90;;;;;;5029211;28;20447;-63
2023/08/12 00:47:56;;;;;;;78.78;39.85;;;20.90;99.90;;;;;;5035716;28;20486;-63
2023/08/12 00:50:21;;;;;;;64.47;35.55;;;20.90;99.90;;;;;;5037193;28;20366;-62
2023/08/12 00:52:49;;;;;;;54.05;31.55;;;20.90;99.90;;;;;;5035049;28;20018;-59
2023/08/12 00:55:15;;;;;;;62.03;31.17;;;20.80;99.90;;;;;;5030870;28;20030;-61
2023/08/12 00:57:40;;;;;;;59.17;33.17;;;20.90;99.90;;;;;;5026576;28;20053;-62
2023/08/12 01:00:07;;;;;;;66.63;36.00;;;20.90;99.90;;;;;;5032957;28;20064;-63
2023/08/12 01:02:33;;;;;;;72.10;37.13;;;20.80;99.90;;;;;;5040154;28;20036;-61
2023/08/12 01:04:59;;;;;;;56.45;32.60;;;20.80;99.90;;;;;;5031469;28;20029;-62
2023/08/12 01:07:24;;;;;;;70.65;36.60;;;20.90;99.90;;;;;;5035727;28;20037;-63
2023/08/12 01:09:50;;;;;;;68.28;35.15;;;20.80;99.90;;;;;;5031287;28;20536;-62
2023/08/12 01:12:28;;;;;;;67.50;36.88;;;20.90;99.90;;;;;;5025613;28;20037;-62
2023/08/12 01:15:08;;;;;;;74.05;38.97;;;20.90;99.90;;;;;;5026331;28;20068;-62
2023/08/12 01:17:37;;;;;;;71.93;39.63;;;20.90;99.90;;;;;;5024805;28;20108;-62
2023/08/12 01:20:12;;;;;;;71.80;40.95;;;20.90;99.90;;;;;;5031117;28;20516;-63
2023/08/12 01:22:41;;;;;;;77.85;40.00;;;20.80;99.90;;;;;;5030716;28;20030;-62
2023/08/12 01:25:08;;;;;;;77.25;41.22;;;20.80;99.90;;;;;;5033243;28;20116;-61
2023/08/12 01:27:36;;;;;;;78.38;39.95;;;20.80;99.90;;;;;;5039131;28;20075;-62
2023/08/12 01:30:05;;;;;;;70.25;37.10;;;20.80;99.90;;;;;;5038691;28;20026;-62
2023/08/12 01:32:39;;;;;;;51.58;29.30;;;20.80;99.90;;;;;;5032936;28;20543;-62
2023/08/12 01:35:19;;;;;;;;;;;20.80;99.90;;;;;;5037649;28;20508;-63
2023/08/12 01:37:45;;;;;;;64.00;34.30;;;20.80;99.90;;;;;;5032868;28;19909;-62
2023/08/12 01:40:13;;;;;;;70.88;37.50;;;20.80;99.90;;;;;;5035038;28;20045;-62
2023/08/12 01:42:40;;;;;;;74.25;38.15;;;20.80;99.90;;;;;;5027132;28;20048;-62
2023/08/12 01:45:06;;;;;;;78.13;38.38;;;20.70;99.90;;;;;;5036116;28;20029;-62
2023/08/12 01:47:34;;;;;;;72.45;36.67;;;20.70;99.90;;;;;;5031384;28;20368;-62
2023/08/12 01:50:00;;;;;;;61.28;33.40;;;20.70;99.90;;;;;;5032418;28;20037;-62
2023/08/12 01:52:25;;;;;;;64.55;36.22;;;20.70;99.90;;;;;;5031802;28;20505;-61
2023/08/12 01:54:51;;;;;;;74.88;39.10;;;20.70;99.90;;;;;;5033908;28;20029;-63
2023/08/12 01:57:17;;;;;;;99.88;48.97;;;20.70;99.90;;;;;;5034026;28;20045;-62
2023/08/12 01:59:43;;;;;;;62.25;34.47;;;20.70;99.90;;;;;;5035987;28;20413;-63
2023/08/12 02:02:09;;;;;;;72.13;37.38;;;20.70;99.90;;;;;;5034919;28;20021;-63
2023/08/12 02:04:37;;;;;;;80.00;39.38;;;20.70;99.90;;;;;;5036998;28;20044;-61
2023/08/12 02:07:02;;;;;;;64.45;34.42;;;20.70;99.90;;;;;;5032984;28;20021;-62
2023/08/12 02:09:28;;;;;;;79.53;39.35;;;20.70;99.90;;;;;;5037894;28;20025;-62
2023/08/12 02:11:53;;;;;;;86.07;39.58;;;20.70;99.90;;;;;;5033833;28;20029;-62
2023/08/12 02:14:19;;;;;;;81.93;39.45;;;20.70;99.90;;;;;;5040231;28;20040;-62
2023/08/12 02:16:44;;;;;;;80.78;39.95;;;20.70;99.90;;;;;;5036128;28;20021;-62
2023/08/12 02:19:10;;;;;;;86.80;40.05;;;20.70;99.90;;;;;;5031824;28;20029;-62
2023/08/12 02:21:35;;;;;;;82.50;40.55;;;20.70;99.90;;;;;;5042948;28;20021;-62
2023/08/12 02:24:01;;;;;;;71.30;36.38;;;20.70;99.90;;;;;;5029901;28;20044;-61
2023/08/12 02:26:26;;;;;;;85.53;40.13;;;20.70;99.90;;;;;;5032673;28;20413;-62
2023/08/12 02:28:52;;;;;;;89.60;43.17;;;20.70;99.90;;;;;;5032058;28;20087;-63
2023/08/12 02:31:17;;;;;;;91.80;42.97;;;20.70;99.90;;;;;;5036183;28;20026;-61
2023/08/12 02:33:43;;;;;;;82.25;42.65;;;20.70;99.90;;;;;;5034183;28;20378;-63
2023/08/12 02:36:09;;;;;;;70.78;37.78;;;20.70;99.90;;;;;;5041038;28;20041;-62
2023/08/12 02:38:34;;;;;;;93.03;43.78;;;20.70;99.90;;;;;;5039106;28;20028;-61
2023/08/12 02:41:00;;;;;;;91.30;43.28;;;20.70;99.90;;;;;;5034838;28;20079;-62
2023/08/12 02:43:26;;;;;;;78.57;41.65;;;20.70;99.90;;;;;;5034241;28;20089;-62
2023/08/12 02:45:51;;;;;;;79.75;42.47;;;20.70;99.90;;;;;;5028792;28;20037;-61
2023/08/12 02:48:17;;;;;;;80.68;41.47;;;20.70;99.90;;;;;;5032915;28;20087;-62
2023/08/12 02:50:43;;;;;;;93.03;45.65;;;20.70;99.90;;;;;;5028948;28;20075;-62
2023/08/12 02:53:08;;;;;;;96.47;43.17;;;20.70;99.90;;;;;;5032614;28;20029;-62
2023/08/12 02:55:34;;;;;;;91.60;42.25;;;20.70;99.90;;;;;;5032420;28;20040;-62
2023/08/12 02:58:01;;;;;;;82.53;40.53;;;20.70;99.90;;;;;;5035576;28;20030;-62
2023/08/12 03:00:27;;;;;;;92.85;45.08;;;20.70;99.90;;;;;;5033575;28;20072;-60
2023/08/12 03:02:53;;;;;;;80.68;42.72;;;20.70;99.90;;;;;;5036798;28;20025;-63
2023/08/12 03:05:18;;;;;;;97.15;48.20;;;20.80;99.90;;;;;;5036961;28;20028;-62
2023/08/12 03:07:44;;;;;;;82.22;42.25;;;20.70;99.90;;;;;;5035443;28;20028;-63
2023/08/12 03:10:10;;;;;;;105.45;46.35;;;20.70;99.90;;;;;;5033723;28;20071;-62
2023/08/12 03:12:36;;;;;;;85.95;42.72;;;20.70;99.90;;;;;;5030769;28;20495;-61
2023/08/12 03:15:02;;;;;;;92.20;44.92;;;20.80;99.90;;;;;;5031001;28;20041;-63
2023/08/12 03:17:28;;;;;;;86.55;43.70;;;20.80;99.90;;;;;;5036752;28;20481;-60
2023/08/12 03:19:56;;;;;;;80.30;42.92;;;20.80;99.90;;;;;;5033952;28;20033;-61
2023/08/12 03:22:22;;;;;;;87.55;44.05;;;20.80;99.90;;;;;;5036969;28;20022;-63
2023/08/12 03:24:48;;;;;;;70.32;37.13;;;20.70;99.90;;;;;;5027946;28;20453;-61
2023/08/12 03:27:13;;;;;;;72.10;38.60;;;20.70;99.90;;;;;;5029575;28;20044;-60
2023/08/12 03:29:39;;;;;;;70.30;37.45;;;20.70;99.90;;;;;;5030649;28;20022;-60
2023/08/12 03:32:05;;;;;;;62.17;32.78;;;20.70;99.90;;;;;;5036018;28;20025;-62
2023/08/12 03:34:30;;;;;;;80.15;38.05;;;20.70;99.90;;;;;;5037110;28;20033;-62
2023/08/12 03:36:56;;;;;;;69.88;36.70;;;20.70;99.90;;;;;;5032885;28;20038;-62
2023/08/12 03:39:21;;;;;;;73.93;37.83;;;20.60;99.90;;;;;;5024098;28;20409;-62
2023/08/12 03:41:47;;;;;;;64.97;35.88;;;20.70;99.90;;;;;;5036616;28;20404;-62
2023/08/12 03:44:12;;;;;;;62.58;33.55;;;20.60;99.90;;;;;;5037635;28;20509;-61
2023/08/12 03:46:38;;;;;;;64.75;34.53;;;20.60;99.90;;;;;;5035711;28;20114;-62
2023/08/12 03:49:03;;;;;;;66.45;35.92;;;20.60;99.90;;;;;;5034340;28;20037;-63
2023/08/12 03:51:29;;;;;;;50.38;30.23;;;20.60;99.90;;;;;;5038836;28;20028;-61
2023/08/12 03:53:54;;;;;;;55.53;31.48;;;20.50;99.90;;;;;;5036198;28;20100;-61
2023/08/12 03:56:20;;;;;;;58.05;30.98;;;20.50;99.90;;;;;;5028200;28;20074;-63
2023/08/12 03:58:45;;;;;;;57.67;27.60;;;20.50;99.90;;;;;;5036120;28;20060;-61
2023/08/12 04:01:11;;;;;;;49.15;28.48;;;20.50;99.90;;;;;;5034673;28;20490;-61
2023/08/12 04:03:36;;;;;;;38.92;25.05;;;20.40;99.90;;;;;;5046132;28;20508;-61
2023/08/12 04:06:03;;;;;;;49.85;25.85;;;20.30;99.90;;;;;;5039483;28;20096;-62
2023/08/12 04:08:28;;;;;;;41.60;25.20;;;20.30;99.90;;;;;;5031230;28;20014;-62
2023/08/12 04:10:54;;;;;;;46.08;25.13;;;20.30;99.90;;;;;;5031753;28;20026;-60
2023/08/12 04:13:20;;;;;;;40.40;24.00;;;20.20;99.90;;;;;;5034858;28;20037;-61
2023/08/12 04:15:50;;;;;;;39.10;23.92;;;20.20;99.90;;;;;;5030741;28;20040;-62
2023/08/12 04:18:15;;;;;;;41.72;23.95;;;20.20;99.90;;;;;;5029971;28;20030;-62
2023/08/12 04:20:41;;;;;;;45.97;25.80;;;20.20;99.90;;;;;;5029365;28;20037;-62
2023/08/12 04:23:06;;;;;;;44.20;25.77;;;20.10;99.90;;;;;;5032569;28;20041;-63
2023/08/12 04:25:32;;;;;;;42.67;25.65;;;20.10;99.90;;;;;;5033854;28;20627;-61
2023/08/12 04:27:58;;;;;;;38.67;24.63;;;20.10;99.90;;;;;;5034747;28;20025;-62
2023/08/12 04:30:23;;;;;;;46.67;24.13;;;20.10;99.90;;;;;;5033222;28;20017;-62
2023/08/12 04:32:49;;;;;;;43.05;24.55;;;20.10;99.90;;;;;;5031259;28;20032;-62
2023/08/12 04:35:15;;;;;;;34.17;21.45;;;20.10;99.90;;;;;;5031616;28;20420;-62
2023/08/12 04:37:40;;;;;;;39.92;24.67;;;20.10;99.90;;;;;;5029379;28;20021;-62
2023/08/12 04:40:11;;;;;;;41.78;23.27;;;20.10;99.90;;;;;;5034210;28;20037;-63
2023/08/12 04:42:36;;;;;;;43.40;23.58;;;20.10;99.90;;;;;;5031259;28;20508;-61
2023/08/12 04:45:03;;;;;;;40.60;22.23;;;20.10;99.90;;;;;;5032649;28;20033;-62
2023/08/12 04:47:29;;;;;;;32.63;20.33;;;20.10;99.90;;;;;;5026017;28;20100;-62
2023/08/12 04:49:54;;;;;;;39.58;22.25;;;20.20;99.90;;;;;;5033312;28;20100;-62
2023/08/12 04:52:20;;;;;;;33.03;19.60;;;20.20;99.90;;;;;;5035066;28;20025;-62
2023/08/12 04:54:46;;;;;;;36.65;23.38;;;20.20;99.90;;;;;;5030783;28;20107;-61
2023/08/12 04:57:12;;;;;;;35.60;21.92;;;20.20;99.90;;;;;;5030819;28;20473;-59
2023/08/12 04:59:37;;;;;;;30.77;21.83;;;20.30;99.90;;;;;;5030696;28;20370;-62
2023/08/12 05:02:03;;;;;;;33.88;22.90;;;20.30;99.90;;;;;;5036100;28;20378;-62
2023/08/12 05:04:28;;;;;;;36.22;23.48;;;20.40;99.90;;;;;;5034023;28;20397;-60
2023/08/12 05:06:54;;;;;;;34.70;21.45;;;20.40;99.90;;;;;;5030241;28;20029;-60
2023/08/12 05:09:19;;;;;;;32.72;21.85;;;20.40;99.90;;;;;;5031897;28;20049;-63
2023/08/12 05:11:45;;;;;;;36.88;22.05;;;20.40;99.90;;;;;;5032935;28;20021;-60
2023/08/12 05:14:10;;;;;;;34.55;21.85;;;20.50;99.90;;;;;;5032632;28;20509;-62
2023/08/12 05:16:36;;;;;;;34.03;21.08;;;20.50;99.90;;;;;;5027635;28;20437;-62
2023/08/12 05:19:02;;;;;;;32.63;20.00;;;20.50;99.90;;;;;;5025099;28;20473;-60
2023/08/12 05:21:27;;;;;;;31.58;19.42;;;20.50;99.90;;;;;;5033417;28;20090;-60
2023/08/12 05:23:53;;;;;;;33.33;19.55;;;20.50;99.90;;;;;;5035288;28;20499;-62
2023/08/12 05:26:20;;;;;;;32.78;20.13;;;20.60;99.90;;;;;;5040406;28;20139;-62
2023/08/12 05:28:46;;;;;;;25.75;17.60;;;20.60;99.90;;;;;;5034709;28;20117;-61
2023/08/12 05:31:11;;;;;;;32.47;18.73;;;20.60;99.90;;;;;;5037274;28;20053;-60
2023/08/12 05:33:37;;;;;;;34.88;19.77;;;20.70;99.90;;;;;;5036282;28;20080;-60
2023/08/12 05:36:03;;;;;;;31.65;20.92;;;20.70;99.90;;;;;;5033182;28;20034;-63
2023/08/12 05:38:29;;;;;;;27.88;18.67;;;20.70;99.90;;;;;;5036120;28;20497;-63
2023/08/12 05:40:54;;;;;;;27.05;17.80;;;20.70;99.90;;;;;;5037117;28;20029;-61
2023/08/12 05:43:20;;;;;;;31.83;20.88;;;20.70;99.90;;;;;;5039446;28;20033;-62
2023/08/12 05:45:46;;;;;;;32.80;21.75;;;20.70;99.90;;;;;;5036683;28;20013;-61
2023/08/12 05:48:11;;;;;;;23.70;18.90;;;20.70;99.90;;;;;;5034033;28;20474;-62
2023/08/12 05:50:37;;;;;;;34.20;22.02;;;20.70;99.90;;;;;;5030570;28;20056;-62
2023/08/12 05:53:02;;;;;;;30.30;20.50;;;20.70;99.90;;;;;;5034950;28;20397;-62
2023/08/12 05:55:28;;;;;;;32.92;22.02;;;20.70;99.90;;;;;;5034636;28;20485;-63
2023/08/12 05:57:53;;;;;;;28.70;20.65;;;20.70;99.90;;;;;;5035968;28;20021;-60
2023/08/12 06:00:19;;;;;;;39.15;24.17;;;20.60;99.90;;;;;;5033118;28;20057;-61
2023/08/12 06:02:44;;;;;;;33.75;22.80;;;20.60;99.90;;;;;;5035367;28;20025;-60
2023/08/12 06:05:10;;;;;;;40.00;24.38;;;20.60;99.90;;;;;;5034529;28;20037;-61
2023/08/12 06:07:36;;;;;;;44.17;26.70;;;20.70;99.90;;;;;;5034948;28;20024;-62
2023/08/12 06:10:02;;;;;;;51.13;26.38;;;20.70;99.90;;;;;;5035335;28;20508;-61
2023/08/12 06:12:27;;;;;;;39.20;23.83;;;20.70;99.90;;;;;;5035820;28;20025;-61
2023/08/12 06:14:53;;;;;;;43.08;26.63;;;20.60;99.90;;;;;;5029146;28;20059;-60
2023/08/12 06:17:19;;;;;;;37.15;25.92;;;20.70;99.90;;;;;;5033718;28;20556;-61
2023/08/12 06:19:44;;;;;;;41.45;25.67;;;20.60;99.90;;;;;;5030692;28;20026;-59
2023/08/12 06:22:09;;;;;;;37.42;23.42;;;20.60;99.90;;;;;;5027815;28;20421;-61
2023/08/12 06:24:35;;;;;;;37.72;24.15;;;20.60;99.90;;;;;;5030880;28;20026;-61
2023/08/12 06:27:01;;;;;;;32.25;18.42;;;20.60;99.90;;;;;;5029355;28;20033;-61
2023/08/12 06:29:26;;;;;;;24.20;15.95;;;20.50;99.90;;;;;;5038446;28;20037;-60
2023/08/12 06:31:53;;;;;;;27.85;15.02;;;20.40;99.90;;;;;;5035688;28;20030;-63
2023/08/12 06:34:19;;;;;;;26.10;13.98;;;20.40;99.90;;;;;;5036219;28;20048;-61
2023/08/12 06:36:44;;;;;;;18.85;10.98;;;20.30;99.90;;;;;;5036589;28;20489;-62
2023/08/12 06:39:10;;;;;;;17.00;9.93;;;20.30;99.90;;;;;;5025978;28;20033;-61
2023/08/12 06:41:35;;;;;;;20.90;11.77;;;20.30;99.90;;;;;;5037673;28;20388;-61
2023/08/12 06:44:01;;;;;;;14.20;9.95;;;20.30;99.90;;;;;;5027785;28;20473;-63
2023/08/12 06:46:26;;;;;;;18.10;10.02;;;20.40;99.90;;;;;;5032202;28;20039;-59
2023/08/12 06:48:52;;;;;;;19.08;11.23;;;20.40;99.90;;;;;;5029797;28;20026;-59
2023/08/12 06:51:17;;;;;;;16.58;9.80;;;20.50;99.90;;;;;;5029279;28;20116;-61
2023/08/12 06:53:43;;;;;;;14.80;8.68;;;20.50;99.90;;;;;;5031566;28;20028;-62
2023/08/12 06:56:08;;;;;;;15.48;8.13;;;20.50;99.90;;;;;;5029854;28;20029;-61
2023/08/12 06:58:34;;;;;;;15.43;8.50;;;20.50;99.90;;;;;;5029881;28;20033;-62
2023/08/12 07:01:00;;;;;;;14.75;8.00;;;20.50;99.90;;;;;;5028402;28;20061;-62
2023/08/12 07:03:26;;;;;;;11.63;7.47;;;20.50;99.90;;;;;;5029645;28;20056;-62
2023/08/12 07:05:53;;;;;;;11.52;7.10;;;20.50;99.90;;;;;;5029485;28;20497;-63
2023/08/12 07:08:18;;;;;;;12.13;6.38;;;20.50;99.90;;;;;;5029028;28;20035;-61
2023/08/12 07:10:45;;;;;;;10.80;6.78;;;20.50;99.90;;;;;;5031272;28;20025;-63
2023/08/12 07:13:10;;;;;;;29.23;14.60;;;20.60;99.90;;;;;;5032653;28;20033;-61
2023/08/12 07:15:36;;;;;;;10.25;6.40;;;20.50;99.90;;;;;;5029832;28;20447;-62
2023/08/12 07:18:02;;;;;;;8.13;6.00;;;20.50;99.90;;;;;;5029011;28;20045;-59
2023/08/12 07:20:28;;;;;;;7.63;5.45;;;20.50;99.90;;;;;;5028775;28;20397;-61
2023/08/12 07:22:53;;;;;;;13.38;5.75;;;20.30;99.90;;;;;;5028404;28;20026;-61
2023/08/12 07:25:19;;;;;;;7.60;5.78;;;20.30;99.90;;;;;;5032305;28;20036;-59
2023/08/12 07:27:44;;;;;;;13.07;5.82;;;20.40;99.90;;;;;;5034273;28;20021;-62
2023/08/12 07:30:10;;;;;;;11.98;5.68;;;20.40;99.90;;;;;;5035741;28;20025;-61
2023/08/12 07:32:37;;;;;;;11.25;5.85;;;20.50;99.90;;;;;;5032024;28;20026;-62
2023/08/12 07:35:05;;;;;;;9.25;5.07;;;20.40;99.90;;;;;;5027607;28;20877;-63
2023/08/12 07:37:30;;;;;;;8.77;5.38;;;20.40;99.90;;;;;;5030360;28;20497;-62
2023/08/12 07:39:56;;;;;;;7.70;4.57;;;20.40;99.90;;;;;;5029900;28;20230;-61
2023/08/12 07:42:21;;;;;;;12.25;5.78;;;20.50;99.90;;;;;;5027837;28;20035;-63
2023/08/12 07:44:47;;;;;;;8.15;4.63;;;20.60;99.90;;;;;;5030477;28;20025;-62
2023/08/12 07:47:12;;;;;;;15.93;4.93;;;20.70;99.90;;;;;;5027869;28;20119;-62
2023/08/12 07:49:38;;;;;;;7.75;5.25;;;20.80;99.90;;;;;;5031019;28;20061;-62
2023/08/12 07:52:04;;;;;;;8.80;5.53;;;20.90;99.90;;;;;;5030631;28;20041;-61
2023/08/12 07:54:29;;;;;;;11.50;5.28;;;21.10;99.90;;;;;;5029655;28;20037;-63
2023/08/12 07:56:55;;;;;;;10.05;4.72;;;21.20;99.90;;;;;;5029589;28;20036;-62
2023/08/12 07:59:21;;;;;;;9.02;4.30;;;21.20;99.90;;;;;;5027417;28;20065;-63
2023/08/12 08:01:47;;;;;;;6.10;4.28;;;21.20;99.90;;;;;;5030635;28;20057;-61
2023/08/12 08:04:12;;;;;;;10.55;4.97;;;21.30;99.90;;;;;;5029853;28;20079;-65
2023/08/12 08:06:38;;;;;;;7.75;4.75;;;21.30;99.90;;;;;;5028548;28;20033;-61
2023/08/12 08:09:03;;;;;;;6.40;4.35;;;21.30;99.90;;;;;;5030991;28;20021;-63
2023/08/12 08:11:30;;;;;;;4.78;4.07;;;21.30;99.90;;;;;;5028566;28;20444;-63
2023/08/12 08:13:57;;;;;;;7.97;4.50;;;21.40;99.90;;;;;;5027325;28;20021;-61
2023/08/12 08:16:22;;;;;;;6.15;3.90;;;21.30;99.90;;;;;;5028809;28;20033;-61
2023/08/12 08:18:48;;;;;;;7.38;4.32;;;21.30;99.90;;;;;;5029704;28;20497;-61
2023/08/12 08:21:13;;;;;;;5.20;3.78;;;21.40;99.90;;;;;;5028534;28;20056;-62
2023/08/12 08:23:41;;;;;;;7.43;3.85;;;21.40;99.90;;;;;;5032432;28;20034;-62
2023/08/12 08:26:07;;;;;;;10.95;4.22;;;21.40;99.90;;;;;;5027221;28;20022;-61
2023/08/12 08:28:32;;;;;;;6.28;3.60;;;21.40;99.90;;;;;;5026951;28;20025;-61
2023/08/12 08:30:58;;;;;;;5.65;3.60;;;21.50;99.90;;;;;;5024237;28;20531;-61
2023/08/12 08:33:25;;;;;;;9.10;4.03;;;21.50;99.90;;;;;;5023020;28;20038;-59
2023/08/12 08:35:51;;;;;;;5.22;3.47;;;21.60;99.90;;;;;;5021102;28;20037;-59
2023/08/12 08:38:16;;;;;;;6.97;3.28;;;21.60;99.90;;;;;;5029207;28;20039;-59
2023/08/12 08:40:42;;;;;;;5.25;3.35;;;21.50;99.90;;;;;;5028658;28;20038;-59
2023/08/12 08:43:08;;;;;;;9.18;3.50;;;21.40;99.90;;;;;;5027070;28;20108;-60
2023/08/12 08:45:34;;;;;;;7.22;2.83;;;21.50;99.90;;;;;;5025739;28;20025;-60
2023/08/12 08:48:01;;;;;;;8.20;3.75;;;21.40;99.90;;;;;;5026095;28;20099;-56
2023/08/12 08:50:30;;;;;;;5.10;3.40;;;21.50;99.90;;;;;;5037194;28;20025;-58
2023/08/12 08:52:57;;;;;;;4.75;3.08;;;21.60;99.90;;;;;;5031841;28;20051;-61
2023/08/12 08:55:23;;;;;;;14.75;3.90;;;21.70;99.90;;;;;;5026546;28;20030;-60
2023/08/12 08:57:50;;;;;;;8.38;3.75;;;21.70;99.90;;;;;;5028598;28;20079;-59
2023/08/12 09:00:16;;;;;;;5.80;3.53;;;21.70;99.90;;;;;;5038278;28;20033;-59
2023/08/12 09:02:48;;;;;;;4.47;3.58;;;21.60;99.90;;;;;;5033116;28;20135;-60
2023/08/12 09:05:15;;;;;;;7.32;3.55;;;21.70;99.90;;;;;;5032721;28;20025;-58
2023/08/12 09:07:41;;;;;;;9.75;3.58;;;21.80;99.90;;;;;;5031758;28;20044;-60
2023/08/12 09:10:08;;;;;;;7.20;3.58;;;21.90;99.90;;;;;;5035146;28;20509;-59
2023/08/12 09:12:34;;;;;;;3.88;3.33;;;22.10;99.90;;;;;;5037454;28;20114;-59
2023/08/12 09:14:59;;;;;;;6.75;3.88;;;22.30;99.90;;;;;;5031659;28;20619;-57
2023/08/12 09:17:25;;;;;;;6.70;3.65;;;22.30;99.90;;;;;;5030826;28;20025;-59
2023/08/12 09:19:51;;;;;;;6.13;3.08;;;22.30;99.90;;;;;;5032754;28;20151;-59
2023/08/12 09:22:18;;;;;;;3.58;2.58;;;22.40;99.90;;;;;;5031173;28;20044;-60
2023/08/12 09:24:43;;;;;;;10.88;3.13;;;22.50;99.90;;;;;;5033172;28;20054;-58
2023/08/12 09:27:09;;;;;;;5.30;2.80;;;22.60;99.90;;;;;;5036017;28;20426;-59
2023/08/12 09:29:35;;;;;;;11.10;3.17;;;22.70;99.90;;;;;;5040262;28;20048;-60
2023/08/12 09:32:19;;;;;;;5.28;2.90;;;22.70;99.90;;;;;;5033187;28;20485;-59
2023/08/12 09:34:52;;;;;;;8.32;3.03;;;22.80;99.90;;;;;;5033411;28;20476;-54
2023/08/12 09:37:19;;;;;;;6.57;2.83;;;22.90;99.90;;;;;;5033046;28;20048;-57
2023/08/12 09:39:45;;;;;;;8.02;3.03;;;23.10;99.90;;;;;;5037143;28;20442;-55
2023/08/12 09:42:11;;;;;;;8.10;2.72;;;23.10;99.90;;;;;;5035737;28;20104;-58
2023/08/12 09:44:37;;;;;;;8.02;3.33;;;23.40;99.90;;;;;;5031195;28;20029;-59
2023/08/12 09:47:03;;;;;;;8.50;2.97;;;23.60;99.90;;;;;;5029108;28;20021;-57
2023/08/12 09:49:29;;;;;;;4.40;2.60;;;23.70;99.90;;;;;;5033902;28;20033;-57
2023/08/12 09:51:55;;;;;;;5.65;2.95;;;23.70;99.90;;;;;;5030256;28;20045;-60
2023/08/12 09:54:21;;;;;;;8.90;3.00;;;23.90;99.90;;;;;;5037662;28;20045;-59
2023/08/12 09:56:48;;;;;;;7.22;2.97;;;24.00;99.90;;;;;;5025623;28;20041;-59
2023/08/12 09:59:23;;;;;;;6.05;3.13;;;23.70;99.90;;;;;;5032452;28;20397;-60
2023/08/12 10:01:50;;;;;;;5.78;3.00;;;23.60;99.90;;;;;;5031854;28;20504;-61
2023/08/12 10:04:18;;;;;;;9.60;3.15;;;23.40;99.90;;;;;;5033135;28;20485;-59
2023/08/12 10:06:45;;;;;;;5.50;2.70;;;23.20;99.90;;;;;;5032930;28;20751;-55
2023/08/12 10:09:11;;;;;;;4.80;2.85;;;23.10;99.90;;;;;;5028977;28;20021;-58
2023/08/12 10:11:37;;;;;;;10.88;2.97;;;23.00;99.90;;;;;;5033121;28;20634;-59
2023/08/12 10:14:08;;;;;;;4.95;2.60;;;22.90;99.90;;;;;;5033480;28;20041;-57
2023/08/12 10:16:35;;;;;;;7.85;2.15;;;22.80;99.90;;;;;;5028807;28;20032;-57
2023/08/12 10:19:02;;;;;;;2.97;1.55;;;22.60;99.90;;;;;;5032221;28;20052;-58
2023/08/12 10:21:28;;;;;;;4.00;1.50;;;22.70;99.90;;;;;;5036259;28;20033;-58
2023/08/12 10:23:57;;;;;;;1.85;1.20;;;22.70;99.90;;;;;;5028273;28;20033;-57
2023/08/12 10:26:24;;;;;;;2.65;1.40;;;22.90;99.90;;;;;;5034262;28;20108;-55
2023/08/12 10:28:50;;;;;;;1.75;1.38;;;23.10;99.90;;;;;;5031060;28;20787;-58
2023/08/12 10:31:16;;;;;;;2.78;1.50;;;23.40;99.90;;;;;;5034459;28;20017;-59
2023/08/12 10:33:42;;;;;;;3.30;1.50;;;23.40;99.90;;;;;;5033702;28;20017;-58
2023/08/12 10:36:09;;;;;;;5.25;1.20;;;23.50;99.90;;;;;;5032475;28;20024;-60
2023/08/12 10:38:35;;;;;;;3.55;1.52;;;23.50;99.90;;;;;;5032939;28;20037;-58
2023/08/12 10:41:27;;;;;;;1.55;1.05;;;23.60;99.90;;;;;;5025572;28;20049;-57
2023/08/12 10:44:02;;;;;;;2.25;1.60;;;23.50;99.90;;;;;;5028696;28;20401;-56
2023/08/12 10:46:35;;;;;;;1.70;1.50;;;23.40;99.90;;;;;;5033172;28;20017;-61
2023/08/12 10:49:09;;;;;;;2.05;1.42;;;23.30;99.90;;;;;;5029004;28;20021;-57
2023/08/12 10:51:52;;;;;;;3.63;1.55;;;23.10;99.90;;;;;;5029340;28;20037;-56
2023/08/12 10:54:29;;;;;;;3.22;1.27;;;23.10;99.90;;;;;;5030496;28;20021;-56
2023/08/12 10:57:08;;;;;;;2.10;1.48;;;23.10;99.90;;;;;;5027895;28;20025;-59
2023/08/12 10:59:45;;;;;;;1.13;1.02;;;23.10;99.90;;;;;;5036927;28;20029;-61
2023/08/12 11:02:32;;;;;;;3.22;1.52;;;23.10;99.90;;;;;;5024693;28;20536;-57
2023/08/12 11:05:02;;;;;;;3.22;1.23;;;23.10;99.90;;;;;;5026809;28;20037;-55
2023/08/12 11:07:45;;;;;;;3.13;1.38;;;23.10;99.90;;;;;;5026593;28;20029;-57
2023/08/12 11:10:21;;;;;;;3.50;1.60;;;23.10;99.90;;;;;;5031991;28;20512;-55
2023/08/12 11:12:52;;;;;;;2.05;1.40;;;23.10;99.90;;;;;;5030649;28;20051;-55
2023/08/12 11:15:42;;;;;;;2.28;1.40;;;23.00;99.90;;;;;;5028416;28;20064;-58
2023/08/12 11:18:10;;;;;;;2.53;1.77;;;23.00;99.90;;;;;;5027285;28;20030;-55
2023/08/12 11:20:37;;;;;;;3.47;1.60;;;22.90;99.90;;;;;;5031836;28;20036;-58
2023/08/12 11:23:04;;;;;;;4.25;1.42;;;23.00;99.90;;;;;;5031598;28;20497;-60
2023/08/12 11:25:32;;;;;;;2.63;1.67;;;23.00;99.90;;;;;;5031148;28;20082;-58
2023/08/12 11:27:59;;;;;;;6.07;1.40;;;23.00;99.90;;;;;;5035232;28;20026;-59
2023/08/12 11:30:25;;;;;;;7.10;1.30;;;23.00;99.90;;;;;;5034110;28;20513;-58
2023/08/12 11:32:53;;;;;;;3.47;1.48;;;23.00;99.90;;;;;;5025145;28;20579;-60
2023/08/12 11:35:20;;;;;;;1.20;1.10;;;23.00;99.90;;;;;;5026761;28;20033;-59
2023/08/12 11:37:49;;;;;;;1.58;1.17;;;23.10;99.90;;;;;;5031474;28;20028;-57
2023/08/12 11:40:17;;;;;;;2.65;1.70;;;23.10;99.90;;;;;;5047083;28;20481;-57
2023/08/12 11:42:44;;;;;;;1.77;1.42;;;23.10;99.90;;;;;;5031295;28;20323;-59
2023/08/12 11:45:11;;;;;;;2.25;1.30;;;23.10;99.90;;;;;;5031076;28;20033;-59
2023/08/12 11:47:40;;;;;;;1.67;1.40;;;23.20;99.90;;;;;;5034754;28;20029;-61
2023/08/12 11:50:08;;;;;;;2.05;1.10;;;23.30;99.90;;;;;;5029018;28;20381;-60
2023/08/12 11:52:35;;;;;;;1.67;1.50;;;23.40;99.90;;;;;;5032696;28;20037;-60
2023/08/12 11:55:01;;;;;;;2.08;1.58;;;23.50;99.90;;;;;;5027542;28;20029;-59
2023/08/12 11:57:27;;;;;;;1.48;1.35;;;23.60;99.90;;;;;;5036042;28;20408;-56
2023/08/12 12:00:08;;;;;;;1.20;1.05;;;23.60;99.90;;;;;;5032547;28;20029;-58
2023/08/12 12:02:38;;;;;;;2.28;1.38;;;23.70;99.90;;;;;;5026001;28;20044;-59
2023/08/12 12:05:08;;;;;;;1.23;0.98;;;23.60;99.90;;;;;;5028287;28;20021;-55
2023/08/12 12:07:34;;;;;;;1.30;0.95;;;23.70;99.90;;;;;;5026353;28;20083;-57
2023/08/12 12:09:59;;;;;;;2.38;1.10;;;23.80;99.90;;;;;;5029530;28;20025;-60
2023/08/12 12:12:25;;;;;;;1.90;0.65;;;23.90;99.90;;;;;;5028372;28;20026;-58
2023/08/12 12:14:53;;;;;;;1.48;0.80;;;23.90;99.90;;;;;;5026805;28;20039;-54
2023/08/12 12:17:21;;;;;;;1.58;0.80;;;24.10;99.90;;;;;;5025548;28;20524;-58
2023/08/12 12:19:47;;;;;;;0.90;0.80;;;24.10;99.90;;;;;;5026036;28;20064;-60
2023/08/12 12:22:12;;;;;;;1.40;0.90;;;24.10;99.90;;;;;;5027984;28;20060;-59
2023/08/12 12:24:48;;;;;;;0.80;0.80;;;24.20;99.90;;;;;;5031289;28;20408;-58
2023/08/12 12:27:14;;;;;;;0.90;0.80;;;24.30;99.90;;;;;;5029013;28;20109;-61
2023/08/12 12:29:40;;;;;;;2.22;1.02;;;24.30;99.90;;;;;;5033247;28;20111;-59
2023/08/12 12:32:06;;;;;;;0.75;0.70;;;24.20;99.90;;;;;;5035439;28;20054;-58
2023/08/12 12:34:31;;;;;;;1.30;0.80;;;24.10;99.90;;;;;;5033911;28;20037;-58